sensor_id;sensor_type;location;lat;lon;timestamp;pressure;altitude;pressure_sealevel;temperature;humidity
51299;BME280;37382;45.192;9.790;2022-10-13T04:02:30;101804.47;;;13.39;100.00
51299;BME280;37382;45.192;9.790;2022-10-13T04:04:58;101796.53;;;13.44;100.00
51299;BME280;37382;45.192;9.790;2022-10-13T04:07:26;101789.25;;;13.21;100.00
51299;BME280;37382;45.192;9.790;2022-10-13T04:09:54;101781.25;;;13.49;100.00
51299;BME280;37382;45.192;9.790;2022-10-13T04:12:21;101786.03;;;13.47;100.00
51299;BME280;37382;45.192;9.790;2022-10-13T04:14:49;101780.19;;;13.50;100.00
51299;BME280;37382;45.192;9.790;2022-10-13T04:17:17;101780.00;;;13.52;100.00
51299;BME280;37382;45.192;9.790;2022-10-13T04:19:44;101778.69;;;13.63;100.00
51299;BME280;37382;45.192;9.790;2022-10-13T04:22:11;101775.28;;;13.82;100.00
51299;BME280;37382;45.192;9.790;2022-10-13T04:24:40;101769.63;;;13.47;100.00
51299;BME280;37382;45.192;9.790;2022-10-13T04:27:07;101764.53;;;13.59;100.00
51299;BME280;37382;45.192;9.790;2022-10-13T04:29:36;101766.19;;;13.24;100.00
51299;BME280;37382;45.192;9.790;2022-10-13T04:32:04;101764.97;;;13.11;100.00
51299;BME280;37382;45.192;9.790;2022-10-13T04:34:31;101764.03;;;13.34;100.00
51299;BME280;37382;45.192;9.790;2022-10-13T04:36:59;101768.22;;;13.51;100.00
51299;BME280;37382;45.192;9.790;2022-10-13T04:39:26;101773.16;;;13.26;100.00
51299;BME280;37382;45.192;9.790;2022-10-13T04:41:55;101770.81;;;13.23;100.00
51299;BME280;37382;45.192;9.790;2022-10-13T04:44:22;101773.53;;;13.23;100.00
51299;BME280;37382;45.192;9.790;2022-10-13T04:46:49;101776.91;;;13.10;100.00
51299;BME280;37382;45.192;9.790;2022-10-13T04:49:17;101778.91;;;13.16;100.00
51299;BME280;37382;45.192;9.790;2022-10-13T04:51:44;101783.13;;;13.19;100.00
51299;BME280;37382;45.192;9.790;2022-10-13T04:54:12;101779.66;;;13.10;100.00
51299;BME280;37382;45.192;9.790;2022-10-13T04:56:43;101779.66;;;12.95;100.00
51299;BME280;37382;45.192;9.790;2022-10-13T04:59:10;101776.19;;;12.87;100.00
51299;BME280;37382;45.192;9.790;2022-10-13T05:01:38;101772.88;;;12.76;100.00
51299;BME280;37382;45.192;9.790;2022-10-13T05:04:09;101775.22;;;12.79;100.00
51299;BME280;37382;45.192;9.790;2022-10-13T05:06:40;101775.97;;;12.73;100.00
51299;BME280;37382;45.192;9.790;2022-10-13T05:09:27;101782.75;;;12.77;100.00
51299;BME280;37382;45.192;9.790;2022-10-13T05:11:55;101790.94;;;12.77;100.00
51299;BME280;37382;45.192;9.790;2022-10-13T05:14:23;101789.63;;;12.73;100.00
51299;BME280;37382;45.192;9.790;2022-10-13T05:16:51;101786.13;;;12.64;100.00
51299;BME280;37382;45.192;9.790;2022-10-13T05:19:19;101783.78;;;12.61;100.00
51299;BME280;37382;45.192;9.790;2022-10-13T05:21:48;101785.84;;;12.74;100.00
51299;BME280;37382;45.192;9.790;2022-10-13T05:24:16;101782.94;;;12.76;100.00
51299;BME280;37382;45.192;9.790;2022-10-13T05:26:46;101788.28;;;12.69;100.00
51299;BME280;37382;45.192;9.790;2022-10-13T05:29:13;101791.31;;;12.74;100.00
51299;BME280;37382;45.192;9.790;2022-10-13T05:31:41;101784.25;;;12.80;100.00
51299;BME280;37382;45.192;9.790;2022-10-13T05:34:09;101790.50;;;12.89;100.00
51299;BME280;37382;45.192;9.790;2022-10-13T05:36:37;101783.03;;;12.82;100.00
51299;BME280;37382;45.192;9.790;2022-10-13T05:39:05;101790.75;;;12.94;100.00
51299;BME280;37382;45.192;9.790;2022-10-13T05:41:35;101779.38;;;12.90;100.00
51299;BME280;37382;45.192;9.790;2022-10-13T05:44:09;101788.53;;;12.97;100.00
51299;BME280;37382;45.192;9.790;2022-10-13T05:46:41;101789.91;;;12.78;100.00
51299;BME280;37382;45.192;9.790;2022-10-13T05:49:09;101793.00;;;12.75;100.00
51299;BME280;37382;45.192;9.790;2022-10-13T05:51:40;101780.31;;;12.82;100.00
51299;BME280;37382;45.192;9.790;2022-10-13T05:54:18;101787.19;;;12.78;100.00
51299;BME280;37382;45.192;9.790;2022-10-13T05:56:55;101795.75;;;12.75;100.00
51299;BME280;37382;45.192;9.790;2022-10-13T05:59:26;101801.66;;;12.64;100.00
51299;BME280;37382;45.192;9.790;2022-10-13T06:01:56;101803.34;;;12.27;100.00
51299;BME280;37382;45.192;9.790;2022-10-13T06:04:37;101803.66;;;12.32;100.00
51299;BME280;37382;45.192;9.790;2022-10-13T06:07:07;101814.34;;;12.57;100.00
51299;BME280;37382;45.192;9.790;2022-10-13T06:09:38;101812.97;;;12.91;100.00
51299;BME280;37382;45.192;9.790;2022-10-13T06:12:07;101810.34;;;12.82;100.00
51299;BME280;37382;45.192;9.790;2022-10-13T06:14:35;101809.28;;;12.31;100.00
51299;BME280;37382;45.192;9.790;2022-10-13T06:17:06;101814.94;;;12.06;100.00
51299;BME280;37382;45.192;9.790;2022-10-13T06:19:33;101812.94;;;12.23;100.00
51299;BME280;37382;45.192;9.790;2022-10-13T06:22:07;101819.53;;;12.05;100.00
51299;BME280;37382;45.192;9.790;2022-10-13T06:24:35;101809.34;;;12.22;100.00
51299;BME280;37382;45.192;9.790;2022-10-13T06:27:05;101815.47;;;12.24;100.00
51299;BME280;37382;45.192;9.790;2022-10-13T06:29:32;101823.78;;;12.31;100.00
51299;BME280;37382;45.192;9.790;2022-10-13T06:32:00;101808.78;;;12.50;100.00
51299;BME280;37382;45.192;9.790;2022-10-13T06:34:27;101814.75;;;12.69;100.00
51299;BME280;37382;45.192;9.790;2022-10-13T06:36:55;101817.00;;;12.65;100.00
51299;BME280;37382;45.192;9.790;2022-10-13T06:39:22;101819.94;;;12.78;100.00
51299;BME280;37382;45.192;9.790;2022-10-13T06:41:50;101821.47;;;12.96;100.00
51299;BME280;37382;45.192;9.790;2022-10-13T06:44:18;101819.97;;;13.08;100.00
51299;BME280;37382;45.192;9.790;2022-10-13T06:46:45;101821.84;;;13.23;100.00
51299;BME280;37382;45.192;9.790;2022-10-13T06:49:13;101825.34;;;13.31;100.00
51299;BME280;37382;45.192;9.790;2022-10-13T06:51:40;101835.50;;;12.78;100.00
51299;BME280;37382;45.192;9.790;2022-10-13T06:54:08;101843.88;;;13.06;100.00
51299;BME280;37382;45.192;9.790;2022-10-13T06:56:36;101842.03;;;13.37;100.00
51299;BME280;37382;45.192;9.790;2022-10-13T06:59:09;101838.25;;;13.67;100.00
51299;BME280;37382;45.192;9.790;2022-10-13T07:01:37;101845.97;;;13.64;100.00
51299;BME280;37382;45.192;9.790;2022-10-13T07:04:12;101847.88;;;13.48;100.00
51299;BME280;37382;45.192;9.790;2022-10-13T07:06:40;101847.31;;;13.38;100.00
51299;BME280;37382;45.192;9.790;2022-10-13T07:09:08;101853.91;;;13.44;100.00
51299;BME280;37382;45.192;9.790;2022-10-13T07:11:35;101847.28;;;13.68;100.00
51299;BME280;37382;45.192;9.790;2022-10-13T07:14:03;101844.53;;;13.83;100.00
51299;BME280;37382;45.192;9.790;2022-10-13T07:16:30;101841.22;;;13.87;100.00
51299;BME280;37382;45.192;9.790;2022-10-13T07:18:58;101829.81;;;13.84;100.00
51299;BME280;37382;45.192;9.790;2022-10-13T07:21:26;101835.19;;;14.14;100.00
51299;BME280;37382;45.192;9.790;2022-10-13T07:23:53;101840.47;;;14.37;100.00
51299;BME280;37382;45.192;9.790;2022-10-13T07:26:21;101828.19;;;14.76;100.00
51299;BME280;37382;45.192;9.790;2022-10-13T07:28:49;101831.06;;;14.89;100.00
51299;BME280;37382;45.192;9.790;2022-10-13T07:31:19;101825.06;;;15.07;100.00
51299;BME280;37382;45.192;9.790;2022-10-13T07:33:48;101824.84;;;15.51;100.00
51299;BME280;37382;45.192;9.790;2022-10-13T07:36:16;101819.34;;;15.44;100.00
51299;BME280;37382;45.192;9.790;2022-10-13T07:38:45;101816.22;;;15.47;100.00
51299;BME280;37382;45.192;9.790;2022-10-13T07:41:13;101832.22;;;15.08;100.00
51299;BME280;37382;45.192;9.790;2022-10-13T07:43:41;101824.72;;;15.24;100.00
51299;BME280;37382;45.192;9.790;2022-10-13T07:46:09;101825.78;;;15.23;100.00
51299;BME280;37382;45.192;9.790;2022-10-13T07:48:38;101825.56;;;14.89;100.00
51299;BME280;37382;45.192;9.790;2022-10-13T07:51:08;101829.69;;;15.07;100.00
51299;BME280;37382;45.192;9.790;2022-10-13T07:53:36;101820.63;;;15.06;100.00
51299;BME280;37382;45.192;9.790;2022-10-13T07:56:05;101824.34;;;15.34;100.00
51299;BME280;37382;45.192;9.790;2022-10-13T07:58:40;101817.47;;;15.51;100.00
51299;BME280;37382;45.192;9.790;2022-10-13T08:01:08;101817.47;;;16.06;100.00
51299;BME280;37382;45.192;9.790;2022-10-13T08:03:40;101823.22;;;16.31;100.00
51299;BME280;37382;45.192;9.790;2022-10-13T08:06:18;101816.16;;;15.95;100.00
51299;BME280;37382;45.192;9.790;2022-10-13T08:08:46;101818.72;;;15.97;100.00
51299;BME280;37382;45.192;9.790;2022-10-13T08:11:16;101815.59;;;16.13;100.00
51299;BME280;37382;45.192;9.790;2022-10-13T08:13:48;101825.72;;;16.13;100.00
51299;BME280;37382;45.192;9.790;2022-10-13T08:16:22;101817.03;;;16.03;100.00
51299;BME280;37382;45.192;9.790;2022-10-13T08:18:50;101814.97;;;16.31;100.00
51299;BME280;37382;45.192;9.790;2022-10-13T08:21:19;101812.03;;;16.33;100.00
51299;BME280;37382;45.192;9.790;2022-10-13T08:24:11;101819.63;;;16.31;100.00
51299;BME280;37382;45.192;9.790;2022-10-13T08:26:40;101814.56;;;16.41;100.00
51299;BME280;37382;45.192;9.790;2022-10-13T08:29:09;101805.06;;;16.70;100.00
51299;BME280;37382;45.192;9.790;2022-10-13T08:31:52;101806.94;;;16.83;100.00
51299;BME280;37382;45.192;9.790;2022-10-13T08:34:23;101800.44;;;17.50;100.00
51299;BME280;37382;45.192;9.790;2022-10-13T08:36:52;101797.38;;;17.71;100.00
51299;BME280;37382;45.192;9.790;2022-10-13T08:39:22;101794.91;;;18.02;100.00
51299;BME280;37382;45.192;9.790;2022-10-13T08:41:51;101795.50;;;18.10;100.00
51299;BME280;37382;45.192;9.790;2022-10-13T08:47:36;101794.63;;;18.42;100.00
51299;BME280;37382;45.192;9.790;2022-10-13T08:50:14;101796.41;;;18.29;100.00
51299;BME280;37382;45.192;9.790;2022-10-13T08:55:32;101784.81;;;18.71;100.00
51299;BME280;37382;45.192;9.790;2022-10-13T08:58:05;101785.56;;;18.85;100.00
51299;BME280;37382;45.192;9.790;2022-10-13T09:00:36;101774.38;;;19.17;100.00
51299;BME280;37382;45.192;9.790;2022-10-13T09:03:25;101785.88;;;18.95;100.00
51299;BME280;37382;45.192;9.790;2022-10-13T09:06:13;101784.03;;;19.08;100.00
51299;BME280;37382;45.192;9.790;2022-10-13T09:08:53;101788.34;;;19.41;100.00
51299;BME280;37382;45.192;9.790;2022-10-13T09:11:21;101782.75;;;19.29;100.00
51299;BME280;37382;45.192;9.790;2022-10-13T09:13:53;101774.41;;;19.35;100.00
51299;BME280;37382;45.192;9.790;2022-10-13T09:16:43;101781.16;;;19.70;100.00
51299;BME280;37382;45.192;9.790;2022-10-13T09:19:27;101781.47;;;19.80;100.00
51299;BME280;37382;45.192;9.790;2022-10-13T09:21:58;101785.81;;;19.39;100.00
51299;BME280;37382;45.192;9.790;2022-10-13T09:24:39;101778.03;;;19.66;100.00
51299;BME280;37382;45.192;9.790;2022-10-13T09:27:17;101775.88;;;19.68;100.00
51299;BME280;37382;45.192;9.790;2022-10-13T09:29:45;101767.38;;;19.51;100.00
51299;BME280;37382;45.192;9.790;2022-10-13T09:32:17;101778.59;;;19.87;100.00
51299;BME280;37382;45.192;9.790;2022-10-13T09:34:46;101773.44;;;19.60;100.00
51299;BME280;37382;45.192;9.790;2022-10-13T09:37:24;101762.16;;;19.80;100.00
51299;BME280;37382;45.192;9.790;2022-10-13T09:40:15;101761.56;;;19.41;100.00
51299;BME280;37382;45.192;9.790;2022-10-13T09:42:50;101756.06;;;19.71;100.00
51299;BME280;37382;45.192;9.790;2022-10-13T09:45:20;101752.81;;;19.63;100.00
51299;BME280;37382;45.192;9.790;2022-10-13T09:48:15;101752.00;;;19.74;100.00
51299;BME280;37382;45.192;9.790;2022-10-13T09:50:48;101756.84;;;20.21;100.00
51299;BME280;37382;45.192;9.790;2022-10-13T09:56:07;101749.91;;;20.42;100.00
51299;BME280;37382;45.192;9.790;2022-10-13T09:58:44;101752.56;;;20.84;100.00
51299;BME280;37382;45.192;9.790;2022-10-13T10:01:29;101752.69;;;19.88;100.00
51299;BME280;37382;45.192;9.790;2022-10-13T10:04:10;101752.28;;;19.54;100.00
51299;BME280;37382;45.192;9.790;2022-10-13T10:06:39;101747.09;;;20.06;100.00
51299;BME280;37382;45.192;9.790;2022-10-13T10:09:32;101736.13;;;20.66;100.00
51299;BME280;37382;45.192;9.790;2022-10-13T10:12:03;101743.38;;;20.01;100.00
51299;BME280;37382;45.192;9.790;2022-10-13T10:14:35;101745.34;;;20.24;100.00
51299;BME280;37382;45.192;9.790;2022-10-13T10:22:39;101742.03;;;20.03;100.00
51299;BME280;37382;45.192;9.790;2022-10-13T10:25:18;101738.84;;;20.30;100.00
51299;BME280;37382;45.192;9.790;2022-10-13T10:30:46;101730.09;;;20.92;100.00
51299;BME280;37382;45.192;9.790;2022-10-13T10:33:21;101719.50;;;21.30;100.00
51299;BME280;37382;45.192;9.790;2022-10-13T10:36:14;101719.47;;;21.42;100.00
51299;BME280;37382;45.192;9.790;2022-10-13T10:38:56;101719.09;;;21.21;100.00
51299;BME280;37382;45.192;9.790;2022-10-13T10:41:42;101712.88;;;20.90;100.00
51299;BME280;37382;45.192;9.790;2022-10-13T10:44:16;101700.13;;;21.88;100.00
51299;BME280;37382;45.192;9.790;2022-10-13T10:46:48;101691.00;;;22.21;100.00
51299;BME280;37382;45.192;9.790;2022-10-13T10:49:22;101690.56;;;22.29;100.00
51299;BME280;37382;45.192;9.790;2022-10-13T10:51:52;101678.44;;;22.69;100.00
51299;BME280;37382;45.192;9.790;2022-10-13T10:57:05;101667.31;;;22.91;100.00
51299;BME280;37382;45.192;9.790;2022-10-13T11:05:15;101662.72;;;22.02;100.00
51299;BME280;37382;45.192;9.790;2022-10-13T11:17:46;101637.41;;;23.43;100.00
51299;BME280;37382;45.192;9.790;2022-10-13T11:26:17;101618.69;;;22.62;100.00
51299;BME280;37382;45.192;9.790;2022-10-13T11:28:45;101621.78;;;22.65;100.00
51299;BME280;37382;45.192;9.790;2022-10-13T11:36:52;101616.78;;;23.66;91.45
51299;BME280;37382;45.192;9.790;2022-10-13T11:44:59;101607.03;;;24.39;82.12
51299;BME280;37382;45.192;9.790;2022-10-13T11:50:38;101615.91;;;23.06;89.40
51299;BME280;37382;45.192;9.790;2022-10-13T11:53:21;101605.41;;;22.86;93.44
51299;BME280;37382;45.192;9.790;2022-10-13T11:55:56;101606.81;;;22.66;97.09
51299;BME280;37382;45.192;9.790;2022-10-13T11:58:29;101601.41;;;22.54;97.42
51299;BME280;37382;45.192;9.790;2022-10-13T12:01:00;101595.59;;;22.34;100.00
51299;BME280;37382;45.192;9.790;2022-10-13T12:03:30;101601.84;;;22.90;99.44
51299;BME280;37382;45.192;9.790;2022-10-13T12:06:04;101596.88;;;22.48;100.00
51299;BME280;37382;45.192;9.790;2022-10-13T12:08:34;101589.84;;;23.07;99.51
51299;BME280;37382;45.192;9.790;2022-10-13T12:11:03;101586.19;;;22.57;95.01
51299;BME280;37382;45.192;9.790;2022-10-13T12:13:34;101590.31;;;23.26;92.27
51299;BME280;37382;45.192;9.790;2022-10-13T12:16:04;101584.91;;;24.11;84.48
51299;BME280;37382;45.192;9.790;2022-10-13T12:18:34;101575.22;;;24.14;84.00
51299;BME280;37382;45.192;9.790;2022-10-13T12:23:35;101578.00;;;22.95;89.85
51299;BME280;37382;45.192;9.790;2022-10-13T12:26:03;101570.63;;;23.60;86.32
51299;BME280;37382;45.192;9.790;2022-10-13T12:31:20;101563.16;;;23.98;82.62
51299;BME280;37382;45.192;9.790;2022-10-13T12:34:00;101560.13;;;22.80;88.32
51299;BME280;37382;45.192;9.790;2022-10-13T12:36:29;101560.31;;;23.23;84.66
51299;BME280;37382;45.192;9.790;2022-10-13T12:39:04;101556.59;;;23.12;84.30
51299;BME280;37382;45.192;9.790;2022-10-13T12:41:37;101561.28;;;22.84;86.18
51299;BME280;37382;45.192;9.790;2022-10-13T12:44:15;101554.69;;;24.25;82.97
51299;BME280;37382;45.192;9.790;2022-10-13T12:46:48;101541.66;;;24.31;78.89
51299;BME280;37382;45.192;9.790;2022-10-13T12:52:15;101546.06;;;24.27;77.10
51299;BME280;37382;45.192;9.790;2022-10-13T12:54:54;101535.75;;;23.79;79.50
51299;BME280;37382;45.192;9.790;2022-10-13T12:57:35;101540.00;;;25.19;74.90
51299;BME280;37382;45.192;9.790;2022-10-13T13:08:02;101534.63;;;24.76;75.89
51299;BME280;37382;45.192;9.790;2022-10-13T13:10:30;101528.00;;;25.13;69.10
51299;BME280;37382;45.192;9.790;2022-10-13T13:13:12;101524.31;;;24.77;71.45
51299;BME280;37382;45.192;9.790;2022-10-13T13:15:40;101521.25;;;24.73;73.85
51299;BME280;37382;45.192;9.790;2022-10-13T13:18:31;101513.78;;;23.73;74.03
51299;BME280;37382;45.192;9.790;2022-10-13T13:21:04;101513.63;;;23.85;75.20
51299;BME280;37382;45.192;9.790;2022-10-13T13:23:33;101511.25;;;24.88;71.45
51299;BME280;37382;45.192;9.790;2022-10-13T13:26:05;101507.94;;;25.01;70.64
51299;BME280;37382;45.192;9.790;2022-10-13T13:28:47;101515.22;;;25.38;70.99
51299;BME280;37382;45.192;9.790;2022-10-13T13:31:18;101505.44;;;24.21;69.84
51299;BME280;37382;45.192;9.790;2022-10-13T13:33:46;101509.28;;;24.67;70.99
51299;BME280;37382;45.192;9.790;2022-10-13T13:36:22;101507.66;;;24.92;69.94
51299;BME280;37382;45.192;9.790;2022-10-13T13:38:52;101498.47;;;24.97;71.69
51299;BME280;37382;45.192;9.790;2022-10-13T13:41:19;101490.41;;;24.90;71.85
51299;BME280;37382;45.192;9.790;2022-10-13T13:43:47;101484.88;;;25.31;70.24
51299;BME280;37382;45.192;9.790;2022-10-13T13:46:19;101490.13;;;24.97;71.80
51299;BME280;37382;45.192;9.790;2022-10-13T13:48:47;101490.19;;;24.28;70.99
51299;BME280;37382;45.192;9.790;2022-10-13T13:51:15;101487.91;;;23.67;72.18
51299;BME280;37382;45.192;9.790;2022-10-13T13:53:45;101488.91;;;23.13;79.55
51299;BME280;37382;45.192;9.790;2022-10-13T13:56:18;101484.84;;;22.99;81.97
51299;BME280;37382;45.192;9.790;2022-10-13T13:58:46;101476.75;;;23.24;80.84
51299;BME280;37382;45.192;9.790;2022-10-13T14:01:13;101475.38;;;22.67;80.94
51299;BME280;37382;45.192;9.790;2022-10-13T14:03:42;101477.63;;;22.70;83.48
51299;BME280;37382;45.192;9.790;2022-10-13T14:06:18;101478.47;;;22.04;84.84
51299;BME280;37382;45.192;9.790;2022-10-13T14:08:46;101467.41;;;22.04;88.14
51299;BME280;37382;45.192;9.790;2022-10-13T14:11:14;101461.28;;;22.25;92.18
51299;BME280;37382;45.192;9.790;2022-10-13T14:13:42;101467.09;;;22.23;85.28
51299;BME280;37382;45.192;9.790;2022-10-13T14:16:15;101461.09;;;21.87;89.55
51299;BME280;37382;45.192;9.790;2022-10-13T14:18:44;101459.53;;;21.96;93.96
51299;BME280;37382;45.192;9.790;2022-10-13T14:21:11;101460.56;;;22.12;90.87
51299;BME280;37382;45.192;9.790;2022-10-13T14:23:39;101450.16;;;22.42;88.90
51299;BME280;37382;45.192;9.790;2022-10-13T14:26:12;101452.59;;;22.65;85.92
51299;BME280;37382;45.192;9.790;2022-10-13T14:28:41;101449.66;;;22.72;89.06
51299;BME280;37382;45.192;9.790;2022-10-13T14:31:09;101454.66;;;22.48;88.11
51299;BME280;37382;45.192;9.790;2022-10-13T14:33:40;101455.00;;;22.56;86.79
51299;BME280;37382;45.192;9.790;2022-10-13T14:36:08;101456.38;;;22.54;92.49
51299;BME280;37382;45.192;9.790;2022-10-13T14:38:35;101457.63;;;22.41;93.65
51299;BME280;37382;45.192;9.790;2022-10-13T14:41:04;101459.00;;;22.38;89.57
51299;BME280;37382;45.192;9.790;2022-10-13T14:43:32;101450.69;;;22.38;90.56
51299;BME280;37382;45.192;9.790;2022-10-13T14:46:01;101449.81;;;22.38;91.74
51299;BME280;37382;45.192;9.790;2022-10-13T14:48:33;101447.31;;;22.36;91.09
51299;BME280;37382;45.192;9.790;2022-10-13T14:51:05;101452.06;;;22.41;90.79
51299;BME280;37382;45.192;9.790;2022-10-13T14:53:38;101456.06;;;22.28;88.82
51299;BME280;37382;45.192;9.790;2022-10-13T14:58:50;101448.41;;;22.35;90.22
51299;BME280;37382;45.192;9.790;2022-10-13T15:01:19;101445.84;;;22.56;91.51
51299;BME280;37382;45.192;9.790;2022-10-13T15:03:47;101440.69;;;22.37;94.39
51299;BME280;37382;45.192;9.790;2022-10-13T15:06:18;101441.19;;;22.34;95.64
51299;BME280;37382;45.192;9.790;2022-10-13T15:08:46;101441.16;;;22.12;95.97
51299;BME280;37382;45.192;9.790;2022-10-13T15:11:15;101437.91;;;21.93;91.98
51299;BME280;37382;45.192;9.790;2022-10-13T15:13:43;101434.06;;;21.77;93.19
51299;BME280;37382;45.192;9.790;2022-10-13T15:16:24;101435.22;;;21.59;93.83
51299;BME280;37382;45.192;9.790;2022-10-13T15:18:53;101429.00;;;21.91;91.65
51299;BME280;37382;45.192;9.790;2022-10-13T15:21:21;101431.91;;;23.05;86.79
51299;BME280;37382;45.192;9.790;2022-10-13T15:23:48;101421.59;;;25.63;74.99
51299;BME280;37382;45.192;9.790;2022-10-13T15:26:17;101418.50;;;23.72;84.72
51299;BME280;37382;45.192;9.790;2022-10-13T15:28:47;101421.53;;;22.96;82.19
51299;BME280;37382;45.192;9.790;2022-10-13T15:31:17;101420.72;;;22.63;87.40
51299;BME280;37382;45.192;9.790;2022-10-13T15:33:46;101416.28;;;22.39;92.07
51299;BME280;37382;45.192;9.790;2022-10-13T15:36:14;101416.31;;;22.17;93.84
51299;BME280;37382;45.192;9.790;2022-10-13T15:38:43;101417.94;;;21.91;96.78
51299;BME280;37382;45.192;9.790;2022-10-13T15:41:11;101417.25;;;21.62;100.00
51299;BME280;37382;45.192;9.790;2022-10-13T15:43:41;101413.59;;;21.56;100.00
51299;BME280;37382;45.192;9.790;2022-10-13T15:46:12;101411.06;;;21.55;100.00
51299;BME280;37382;45.192;9.790;2022-10-13T15:48:48;101410.28;;;21.42;100.00
51299;BME280;37382;45.192;9.790;2022-10-13T15:51:18;101409.41;;;21.20;100.00
51299;BME280;37382;45.192;9.790;2022-10-13T15:53:47;101416.59;;;21.21;100.00
51299;BME280;37382;45.192;9.790;2022-10-13T15:56:15;101422.41;;;21.19;100.00
51299;BME280;37382;45.192;9.790;2022-10-13T15:58:42;101424.34;;;21.19;100.00
51299;BME280;37382;45.192;9.790;2022-10-13T16:01:11;101421.41;;;21.08;100.00
51299;BME280;37382;45.192;9.790;2022-10-13T16:03:40;101416.53;;;20.99;100.00
51299;BME280;37382;45.192;9.790;2022-10-13T16:06:09;101418.38;;;21.10;100.00
51299;BME280;37382;45.192;9.790;2022-10-13T16:08:38;101402.09;;;21.30;100.00
51299;BME280;37382;45.192;9.790;2022-10-13T16:11:07;101409.16;;;21.21;100.00
51299;BME280;37382;45.192;9.790;2022-10-13T16:13:35;101416.34;;;21.22;100.00
51299;BME280;37382;45.192;9.790;2022-10-13T16:16:02;101411.50;;;21.12;100.00
51299;BME280;37382;45.192;9.790;2022-10-13T16:18:32;101410.91;;;20.93;100.00
51299;BME280;37382;45.192;9.790;2022-10-13T16:21:15;101408.63;;;20.73;100.00
51299;BME280;37382;45.192;9.790;2022-10-13T16:23:46;101416.06;;;20.56;100.00
51299;BME280;37382;45.192;9.790;2022-10-13T16:26:14;101410.75;;;20.37;100.00
51299;BME280;37382;45.192;9.790;2022-10-13T16:28:44;101413.19;;;20.22;100.00
51299;BME280;37382;45.192;9.790;2022-10-13T16:31:14;101414.66;;;20.13;100.00
51299;BME280;37382;45.192;9.790;2022-10-13T16:33:43;101410.53;;;19.86;100.00
51299;BME280;37382;45.192;9.790;2022-10-13T16:36:15;101416.28;;;19.73;100.00
51299;BME280;37382;45.192;9.790;2022-10-13T16:38:45;101419.75;;;19.68;100.00
51299;BME280;37382;45.192;9.790;2022-10-13T16:41:15;101423.16;;;19.59;100.00
51299;BME280;37382;45.192;9.790;2022-10-13T16:43:44;101425.31;;;19.45;100.00
51299;BME280;37382;45.192;9.790;2022-10-13T16:46:13;101428.56;;;19.42;100.00
51299;BME280;37382;45.192;9.790;2022-10-13T16:48:43;101434.06;;;19.30;100.00
51299;BME280;37382;45.192;9.790;2022-10-13T16:51:14;101424.59;;;19.26;100.00
51299;BME280;37382;45.192;9.790;2022-10-13T16:53:42;101429.50;;;19.24;100.00
51299;BME280;37382;45.192;9.790;2022-10-13T16:56:13;101420.75;;;19.15;100.00
51299;BME280;37382;45.192;9.790;2022-10-13T16:58:41;101432.59;;;18.92;100.00
51299;BME280;37382;45.192;9.790;2022-10-13T17:01:11;101446.00;;;18.88;100.00
51299;BME280;37382;45.192;9.790;2022-10-13T17:03:42;101440.19;;;18.78;100.00
51299;BME280;37382;45.192;9.790;2022-10-13T17:06:11;101440.44;;;18.76;100.00
51299;BME280;37382;45.192;9.790;2022-10-13T17:08:40;101445.94;;;18.76;100.00
51299;BME280;37382;45.192;9.790;2022-10-13T17:11:15;101440.97;;;18.66;100.00
51299;BME280;37382;45.192;9.790;2022-10-13T17:13:43;101439.56;;;18.64;100.00
51299;BME280;37382;45.192;9.790;2022-10-13T17:16:10;101438.81;;;18.57;100.00
51299;BME280;37382;45.192;9.790;2022-10-13T17:18:42;101438.69;;;18.52;100.00
51299;BME280;37382;45.192;9.790;2022-10-13T17:21:15;101439.16;;;18.48;100.00
51299;BME280;37382;45.192;9.790;2022-10-13T17:23:43;101438.22;;;18.36;100.00
51299;BME280;37382;45.192;9.790;2022-10-13T17:26:15;101437.22;;;18.19;100.00
51299;BME280;37382;45.192;9.790;2022-10-13T17:28:43;101444.56;;;17.88;100.00
51299;BME280;37382;45.192;9.790;2022-10-13T17:31:14;101440.03;;;17.93;100.00
51299;BME280;37382;45.192;9.790;2022-10-13T17:33:43;101441.88;;;18.00;100.00
51299;BME280;37382;45.192;9.790;2022-10-13T17:36:25;101432.75;;;18.18;100.00
51299;BME280;37382;45.192;9.790;2022-10-13T17:38:54;101436.31;;;18.06;100.00
51299;BME280;37382;45.192;9.790;2022-10-13T17:41:22;101436.13;;;18.01;100.00
51299;BME280;37382;45.192;9.790;2022-10-13T17:43:50;101438.63;;;17.84;100.00
51299;BME280;37382;45.192;9.790;2022-10-13T17:46:23;101437.75;;;17.90;100.00
51299;BME280;37382;45.192;9.790;2022-10-13T17:49:09;101443.25;;;17.90;100.00
51299;BME280;37382;45.192;9.790;2022-10-13T17:51:41;101452.84;;;17.81;100.00
51299;BME280;37382;45.192;9.790;2022-10-13T17:54:09;101450.34;;;17.79;100.00
51299;BME280;37382;45.192;9.790;2022-10-13T17:56:42;101461.13;;;17.81;100.00
51299;BME280;37382;45.192;9.790;2022-10-13T17:59:12;101463.41;;;17.84;100.00
51299;BME280;37382;45.192;9.790;2022-10-13T18:01:40;101471.91;;;17.83;100.00
51299;BME280;37382;45.192;9.790;2022-10-13T18:04:11;101472.59;;;17.78;100.00
51299;BME280;37382;45.192;9.790;2022-10-13T18:06:39;101472.22;;;17.74;100.00
51299;BME280;37382;45.192;9.790;2022-10-13T18:09:12;101465.25;;;17.72;100.00
51299;BME280;37382;45.192;9.790;2022-10-13T18:11:41;101457.66;;;17.67;100.00
51299;BME280;37382;45.192;9.790;2022-10-13T18:14:17;101457.66;;;17.67;100.00
51299;BME280;37382;45.192;9.790;2022-10-13T18:16:49;101459.59;;;17.41;100.00
51299;BME280;37382;45.192;9.790;2022-10-13T18:19:19;101459.34;;;17.50;100.00